Time;durP1;ratioP1;P1;durP2;ratioP2;P2;SDS_P1;SDS_P2;PMS_P1;PMS_P2;Temp;Humidity;BMP_temperature;BMP_pressure;BME280_temperature;BME280_humidity;BME280_pressure;Samples;Min_cycle;Max_cycle;Signal;HPM_P1;HPM_P2
2022/09/16 00:02:09;;;;;;;7.60;2.43;;;;;;;11.44;100.00;100557.31;5001468;28;20176;-76
2022/09/16 00:04:35;;;;;;;6.47;2.50;;;;;;;11.46;100.00;100558.19;4999922;28;20306;-76
2022/09/16 00:07:00;;;;;;;15.50;3.17;;;;;;;11.51;100.00;100563.34;5009709;28;20682;-76
2022/09/16 00:09:26;;;;;;;10.63;2.77;;;;;;;11.54;100.00;100569.38;4996862;28;20583;-76
2022/09/16 00:11:51;;;;;;;6.23;2.63;;;;;;;11.53;100.00;100557.38;5011954;28;20560;-76
2022/09/16 00:14:17;;;;;;;8.90;2.67;;;;;;;11.55;100.00;100565.97;5008155;28;20680;-76
2022/09/16 00:16:42;;;;;;;5.63;2.73;;;;;;;11.52;100.00;100558.25;4987856;28;20192;-76
2022/09/16 00:19:08;;;;;;;8.17;2.40;;;;;;;11.52;100.00;100563.38;5009589;28;20189;-76
2022/09/16 00:21:33;;;;;;;7.23;2.67;;;;;;;11.50;100.00;100564.19;5011478;28;20267;-76
2022/09/16 00:23:59;;;;;;;8.50;2.43;;;;;;;11.47;100.00;100569.31;5012558;28;20547;-76
2022/09/16 00:26:24;;;;;;;9.90;2.50;;;;;;;11.45;100.00;100565.84;5001317;28;20200;-76
2022/09/16 00:28:50;;;;;;;6.03;1.67;;;;;;;11.43;100.00;100563.25;4998251;28;20203;-76
2022/09/16 00:31:17;;;;;;;9.10;2.53;;;;;;;11.42;100.00;100563.25;5012106;28;20219;-76
2022/09/16 00:33:42;;;;;;;8.43;2.03;;;;;;;11.40;100.00;100563.25;5010893;28;20195;-75
2022/09/16 00:36:17;;;;;;;5.97;2.10;;;;;;;11.39;100.00;100564.06;5011350;28;20185;-76
2022/09/16 00:38:43;;;;;;;8.00;1.90;;;;;;;11.37;100.00;100555.50;5007643;28;20219;-76
2022/09/16 00:41:17;;;;;;;9.07;2.30;;;;;;;11.35;100.00;100559.78;4989912;28;20218;-75
2022/09/16 00:43:48;;;;;;;9.47;2.40;;;;;;;11.37;100.00;100560.63;4993816;28;20658;-75
2022/09/16 00:46:15;;;;;;;6.97;2.23;;;;;;;11.33;100.00;100564.00;5006928;28;20201;-76
2022/09/16 00:48:41;;;;;;;8.00;2.10;;;;;;;11.29;100.00;100561.41;4999684;28;20258;-76
2022/09/16 00:51:10;;;;;;;6.17;2.13;;;;;;;11.28;100.00;100562.22;5002136;28;20298;-76
2022/09/16 00:53:56;;;;;;;6.77;2.33;;;;;;;11.26;100.00;100561.34;5003198;28;20196;-75
2022/09/16 00:56:25;;;;;;;7.00;2.27;;;;;;;11.24;100.00;100563.91;4975300;28;20226;-75
2022/09/16 00:59:27;;;;;;;7.07;2.57;;;;;;;11.22;100.00;100565.59;4990236;28;20188;-76
2022/09/16 01:01:55;;;;;;;8.30;2.63;;;;;;;11.22;100.00;100570.72;4998112;28;20194;-75
2022/09/16 01:04:28;;;;;;;8.53;2.00;;;;;;;11.22;100.00;100572.41;4997966;28;20195;-76
2022/09/16 01:06:54;;;;;;;6.60;2.17;;;;;;;11.25;100.00;100575.88;4997215;28;20180;-76
2022/09/16 01:09:22;;;;;;;6.77;1.90;;;;;;;11.28;100.00;100570.78;5015314;28;20199;-76
2022/09/16 01:11:48;;;;;;;6.70;2.00;;;;;;;11.31;100.00;100570.84;4981362;28;20215;-76
2022/09/16 01:17:12;;;;;;;4.10;1.83;;;;;;;11.44;100.00;100576.97;4995707;28;20188;-76
2022/09/16 01:20:08;;;;;;;7.97;1.90;;;;;;;11.48;100.00;100571.03;4998268;28;20204;-76
2022/09/16 01:22:44;;;;;;;5.50;1.73;;;;;;;11.46;100.00;100576.13;4984133;28;20837;-76
2022/09/16 01:25:44;;;;;;;8.80;2.30;;;;;;;11.47;100.00;100567.59;4993120;28;20214;-76
2022/09/16 01:28:21;;;;;;;6.00;2.00;;;;;;;11.45;100.00;100570.97;4971573;28;20191;-76
2022/09/16 01:31:06;;;;;;;5.37;1.83;;;;;;;11.41;100.00;100567.53;4987028;28;20539;-76
2022/09/16 01:33:59;;;;;;;5.93;2.23;;;;;;;11.35;100.00;100557.22;4988460;28;20196;-76
2022/09/16 01:36:39;;;;;;;6.27;2.03;;;;;;;11.33;100.00;100571.69;4986520;28;20196;-76
2022/09/16 01:39:18;;;;;;;8.27;2.13;;;;;;;11.30;100.00;100571.66;5002786;28;20275;-76
2022/09/16 01:42:03;;;;;;;5.30;2.20;;;;;;;11.28;100.00;100575.03;4987477;28;20225;-76
2022/09/16 01:44:52;;;;;;;4.03;1.67;;;;;;;11.37;100.00;100575.16;4981269;28;20255;-76
2022/09/16 01:47:49;;;;;;;6.93;1.70;;;;;;;11.39;100.00;100574.31;5000820;28;20189;-76
2022/09/16 01:50:32;;;;;;;6.13;2.23;;;;;;;11.42;100.00;100573.50;4970615;28;20224;-76
2022/09/16 01:53:18;;;;;;;4.70;1.77;;;;;;;11.40;100.00;100572.63;4992915;28;20234;-76
2022/09/16 01:55:59;;;;;;;7.20;1.90;;;;;;;11.33;100.00;100571.69;4979652;28;20209;-76
2022/09/16 01:58:50;;;;;;;6.80;2.20;;;;;;;11.22;100.00;100572.41;4979100;28;20184;-76
2022/09/16 02:01:25;;;;;;;8.73;2.10;;;;;;;11.20;100.00;100568.97;4983340;28;20212;-76
2022/09/16 02:03:58;;;;;;;4.17;1.80;;;;;;;11.14;100.00;100563.75;4979594;28;20192;-76
2022/09/16 02:06:26;;;;;;;9.07;2.60;;;;;;;11.09;100.00;100566.28;4985673;28;20743;-77
2022/09/16 02:08:59;;;;;;;6.33;2.50;;;;;;;11.06;100.00;100563.66;4977146;28;20211;-76
2022/09/16 02:11:25;;;;;;;4.93;2.10;;;;;;;11.08;100.00;100562.00;4978266;28;20212;-76
2022/09/16 02:14:13;;;;;;;6.53;1.90;;;;;;;11.12;100.00;100565.47;4980663;28;20192;-76
2022/09/16 02:16:58;;;;;;;5.60;2.30;;;;;;;11.13;100.00;100564.59;4992124;28;20193;-76
2022/09/16 02:19:47;;;;;;;5.30;2.10;;;;;;;11.12;100.00;100556.09;4978270;28;20250;-76
2022/09/16 02:22:17;;;;;;;7.10;2.73;;;;;;;11.09;100.00;100552.59;4979874;28;20568;-76
2022/09/16 02:24:45;;;;;;;6.53;2.87;;;;;;;11.07;100.00;100551.72;4976443;28;20223;-76
2022/09/16 02:27:16;;;;;;;5.37;2.60;;;;;;;11.06;100.00;100550.00;4984697;28;20623;-76
2022/09/16 02:29:51;;;;;;;6.07;2.77;;;;;;;11.01;100.00;100549.09;4979968;28;20863;-76
2022/09/16 02:32:19;;;;;;;10.47;2.83;;;;;;;11.01;100.00;100543.97;4991960;28;20210;-76
2022/09/16 02:34:47;;;;;;;6.80;2.80;;;;;;;10.98;100.00;100536.25;4979616;28;20279;-76
2022/09/16 02:37:57;;;;;;;5.67;2.70;;;;;;;10.96;100.00;100538.78;4976438;28;20250;-76
2022/09/16 02:40:37;;;;;;;9.37;2.90;;;;;;;10.96;100.00;100549.03;4981726;28;20223;-76
2022/09/16 02:43:03;;;;;;;8.03;2.40;;;;;;;10.98;100.00;100544.78;4992520;28;20187;-76
2022/09/16 02:45:58;;;;;;;7.70;2.40;;;;;;;10.99;100.00;100549.06;4978385;28;20243;-76
2022/09/16 02:48:52;;;;;;;5.77;2.47;;;;;;;11.02;100.00;100553.38;4970027;28;20210;-76
2022/09/16 02:51:59;;;;;;;5.20;2.10;;;;;;;11.08;100.00;100554.31;4992733;28;20215;-76
2022/09/16 02:54:32;;;;;;;8.97;2.10;;;;;;;11.11;100.00;100551.78;4990169;28;20210;-76
2022/09/16 02:56:58;;;;;;;6.73;2.40;;;;;;;11.11;100.00;100551.78;5001692;28;20195;-76
2022/09/16 02:59:24;;;;;;;6.53;2.20;;;;;;;11.09;100.00;100550.03;4993541;28;20695;-77
2022/09/16 03:01:50;;;;;;;5.07;2.47;;;;;;;11.07;100.00;100552.56;4994787;28;20196;-76
2022/09/16 03:04:19;;;;;;;4.93;1.93;;;;;;;11.11;100.00;100554.34;4986755;28;20218;-76
2022/09/16 03:06:45;;;;;;;8.73;2.40;;;;;;;11.10;100.00;100538.97;4990952;28;20188;-76
2022/09/16 03:09:13;;;;;;;5.80;2.27;;;;;;;11.14;100.00;100548.38;4987819;28;20193;-77
2022/09/16 03:12:03;;;;;;;5.73;2.40;;;;;;;11.15;100.00;100539.88;4983413;28;20208;-77
2022/09/16 03:14:59;;;;;;;5.77;2.20;;;;;;;11.15;100.00;100543.28;4995763;28;20207;-77
2022/09/16 03:17:27;;;;;;;6.67;2.87;;;;;;;11.15;100.00;100537.31;5000382;28;20640;-77
2022/09/16 03:20:30;;;;;;;5.23;2.27;;;;;;;11.07;100.00;100532.06;5003396;28;20220;-78
2022/09/16 03:23:43;;;;;;;9.00;2.10;;;;;;;11.01;100.00;100533.72;4996565;28;20222;-77
2022/09/16 03:26:18;;;;;;;10.50;2.60;;;;;;;10.94;100.00;100534.47;4989229;28;20709;-78
2022/09/16 03:28:43;;;;;;;6.23;2.20;;;;;;;10.91;100.00;100531.88;4990502;28;20218;-77
2022/09/16 03:31:16;;;;;;;5.33;2.10;;;;;;;10.90;100.00;100530.16;4988439;28;20731;-77
2022/09/16 03:34:05;;;;;;;6.77;2.17;;;;;;;10.86;100.00;100524.13;4991236;28;20184;-77
2022/09/16 03:36:36;;;;;;;8.63;3.10;;;;;;;10.81;100.00;100527.47;4999782;28;20254;-77
2022/09/16 03:39:03;;;;;;;4.77;2.20;;;;;;;10.82;100.00;100532.63;4994558;28;20191;-77
2022/09/16 03:41:31;;;;;;;5.20;2.70;;;;;;;10.77;100.00;100534.25;4994999;28;20187;-77
2022/09/16 03:43:58;;;;;;;6.87;2.27;;;;;;;10.71;100.00;100528.19;4980302;28;20283;-77
2022/09/16 03:46:25;;;;;;;6.23;2.50;;;;;;;10.70;100.00;100534.16;4998707;28;20680;-77
2022/09/16 03:48:51;;;;;;;6.63;2.63;;;;;;;10.67;100.00;100531.53;4985173;28;20670;-77
2022/09/16 03:51:17;;;;;;;8.37;2.63;;;;;;;10.64;100.00;100537.47;5012675;28;20203;-77
2022/09/16 03:53:42;;;;;;;7.87;2.43;;;;;;;10.62;100.00;100543.44;4994217;28;20839;-77
2022/09/16 03:56:08;;;;;;;7.30;2.60;;;;;;;10.62;100.00;100539.19;4997417;28;20203;-77
2022/09/16 03:58:33;;;;;;;5.20;2.50;;;;;;;10.61;100.00;100526.34;4989419;28;20253;-77
2022/09/16 04:00:59;;;;;;;4.03;2.70;;;;;;;10.58;100.00;100529.72;5018815;28;20333;-77
2022/09/16 04:03:24;;;;;;;6.87;3.30;;;;;;;10.58;100.00;100526.28;4983771;28;20216;-77
2022/09/16 04:05:53;;;;;;;7.23;3.20;;;;;;;10.53;100.00;100523.69;4982250;28;20278;-76
2022/09/16 04:08:19;;;;;;;5.97;2.83;;;;;;;10.51;100.00;100515.09;4998387;28;20193;-78
2022/09/16 04:11:18;;;;;;;8.57;4.17;;;;;;;10.49;100.00;100505.69;4992544;28;20752;-76
2022/09/16 04:13:43;;;;;;;8.00;4.60;;;;;;;10.45;100.00;100512.47;4943098;28;20689;-75
2022/09/16 04:16:09;;;;;;;11.03;4.47;;;;;;;10.44;100.00;100512.44;4993383;28;20253;-77
2022/09/16 04:18:34;;;;;;;6.97;4.07;;;;;;;10.44;100.00;100518.44;4997639;28;20736;-75
2022/09/16 04:21:01;;;;;;;8.37;4.47;;;;;;;10.47;100.00;100523.56;5004584;28;20207;-78
2022/09/16 04:23:28;;;;;;;8.97;4.27;;;;;;;10.53;100.00;100527.94;4997789;28;20568;-76
2022/09/16 04:25:59;;;;;;;8.60;4.00;;;;;;;10.60;100.00;100529.75;5002596;28;20637;-77
2022/09/16 04:28:25;;;;;;;7.30;4.40;;;;;;;10.66;100.00;100525.59;4997434;28;20230;-76
2022/09/16 04:30:51;;;;;;;6.47;3.60;;;;;;;10.68;100.00;100523.00;4998904;28;20247;-76
2022/09/16 04:33:17;;;;;;;7.00;3.60;;;;;;;10.68;100.00;100521.34;5003453;28;20202;-76
2022/09/16 04:35:42;;;;;;;6.33;3.60;;;;;;;10.70;100.00;100509.41;4999847;28;20191;-76
2022/09/16 04:38:08;;;;;;;5.63;3.03;;;;;;;10.70;100.00;100517.06;5000915;28;20257;-76
2022/09/16 04:40:33;;;;;;;9.00;3.80;;;;;;;10.69;100.00;100514.53;4999053;28;20208;-77
2022/09/16 04:42:58;;;;;;;5.47;3.10;;;;;;;10.68;100.00;100511.09;5002943;28;20218;-77
2022/09/16 04:45:24;;;;;;;9.40;3.30;;;;;;;10.67;100.00;100514.50;4996628;28;20537;-76
2022/09/16 04:47:58;;;;;;;9.07;3.30;;;;;;;10.65;100.00;100507.63;5005711;28;20191;-76
2022/09/16 04:50:24;;;;;;;7.97;3.03;;;;;;;10.66;100.00;100509.34;5009410;28;20334;-76
2022/09/16 04:52:50;;;;;;;5.67;3.10;;;;;;;10.65;100.00;100498.22;5002596;28;20582;-76
2022/09/16 04:55:17;;;;;;;6.17;3.60;;;;;;;10.61;100.00;100493.94;4993874;28;20200;-76
2022/09/16 04:57:42;;;;;;;8.93;3.00;;;;;;;10.60;100.00;100494.75;5002490;28;20198;-76
2022/09/16 05:00:08;;;;;;;7.93;3.40;;;;;;;10.56;100.00;100492.97;4999252;28;20210;-77
2022/09/16 05:02:34;;;;;;;4.33;2.83;;;;;;;10.54;100.00;100493.81;4999572;28;20199;-76
2022/09/16 05:04:59;;;;;;;7.60;2.77;;;;;;;10.53;100.00;100485.28;4995916;28;20191;-76
2022/09/16 05:07:28;;;;;;;6.57;3.23;;;;;;;10.52;100.00;100487.81;4998276;28;20271;-76
2022/09/16 05:09:53;;;;;;;6.17;3.30;;;;;;;10.51;100.00;100486.09;4984919;28;20278;-76
2022/09/16 05:12:19;;;;;;;6.90;3.33;;;;;;;10.48;100.00;100484.38;4995328;28;20208;-76
2022/09/16 05:14:44;;;;;;;7.43;3.23;;;;;;;10.47;100.00;100482.63;5000718;28;20187;-76
2022/09/16 05:17:10;;;;;;;9.90;3.17;;;;;;;10.48;100.00;100481.81;5011451;28;20200;-76
2022/09/16 05:19:35;;;;;;;5.40;2.93;;;;;;;10.48;100.00;100488.63;5001678;28;20250;-77
2022/09/16 05:22:05;;;;;;;4.67;2.97;;;;;;;10.49;100.00;100485.22;4994155;28;20279;-77
2022/09/16 05:24:33;;;;;;;6.10;2.93;;;;;;;10.55;100.00;100481.03;4989334;28;20727;-77
2022/09/16 05:26:58;;;;;;;5.63;2.40;;;;;;;10.57;100.00;100491.31;4989852;28;20221;-77
2022/09/16 05:29:23;;;;;;;5.57;2.57;;;;;;;10.58;100.00;100495.56;4994488;28;20701;-77
2022/09/16 05:31:49;;;;;;;6.20;2.47;;;;;;;10.59;100.00;100490.47;4991206;28;20285;-76
2022/09/16 05:34:20;;;;;;;7.50;2.80;;;;;;;10.63;100.00;100497.38;4994330;28;20568;-76
2022/09/16 05:36:47;;;;;;;9.33;2.90;;;;;;;10.64;100.00;100506.75;4984647;28;20192;-76
2022/09/16 05:39:17;;;;;;;9.17;2.97;;;;;;;10.72;100.00;100505.16;4994038;28;20544;-76
2022/09/16 05:41:43;;;;;;;5.83;2.50;;;;;;;10.86;100.00;100513.03;4990519;28;20184;-76
2022/09/16 05:44:09;;;;;;;7.63;2.70;;;;;;;10.92;100.00;100513.13;4987752;28;20184;-77
2022/09/16 05:46:35;;;;;;;6.83;2.93;;;;;;;10.97;100.00;100516.59;4990926;28;20188;-76
2022/09/16 05:49:01;;;;;;;5.40;3.33;;;;;;;10.97;100.00;100514.03;4982654;28;20534;-77
2022/09/16 05:51:26;;;;;;;8.47;3.43;;;;;;;11.04;100.00;100498.75;4984479;28;20190;-77
2022/09/16 05:53:53;;;;;;;6.47;3.20;;;;;;;11.10;100.00;100497.97;4980323;28;20199;-77
2022/09/16 05:56:27;;;;;;;6.17;2.90;;;;;;;11.19;100.00;100488.66;4989010;28;20661;-77
2022/09/16 05:58:54;;;;;;;7.13;2.73;;;;;;;11.36;100.00;100489.72;4981653;28;20215;-77
2022/09/16 06:01:22;;;;;;;6.23;2.53;;;;;;;11.49;99.24;100500.94;4992574;28;20204;-77
2022/09/16 06:03:49;;;;;;;5.60;1.90;;;;;;;11.49;98.77;100495.81;4979163;28;20188;-77
2022/09/16 06:06:23;;;;;;;5.90;2.20;;;;;;;11.54;98.51;100492.47;4997781;28;20203;-77
2022/09/16 06:08:49;;;;;;;6.53;1.67;;;;;;;11.66;98.26;100494.31;5001319;28;20195;-77
2022/09/16 06:11:15;;;;;;;8.53;2.73;;;;;;;11.76;97.71;100494.38;4984654;28;20665;-77
2022/09/16 06:13:41;;;;;;;6.93;2.30;;;;;;;11.71;97.68;100490.94;4981360;28;20192;-76
2022/09/16 06:16:08;;;;;;;8.53;2.97;;;;;;;11.71;97.43;100492.66;4979535;28;20263;-77
2022/09/16 06:18:35;;;;;;;7.80;3.03;;;;;;;11.74;97.09;100483.28;4984159;28;20310;-77
2022/09/16 06:21:10;;;;;;;5.50;2.63;;;;;;;11.89;96.98;100485.97;4985054;28;20255;-77
2022/09/16 06:23:37;;;;;;;7.07;2.83;;;;;;;11.79;96.79;100489.28;4987858;28;20183;-75
2022/09/16 06:26:05;;;;;;;7.60;3.47;;;;;;;11.85;96.39;100480.81;4988027;28;20227;-77
2022/09/16 06:28:31;;;;;;;9.40;3.70;;;;;;;11.91;96.22;100478.28;4978033;28;20271;-76
2022/09/16 06:31:05;;;;;;;10.60;4.07;;;;;;;12.05;96.08;100474.09;4977439;28;20330;-77
2022/09/16 06:33:30;;;;;;;8.90;3.63;;;;;;;12.06;95.81;100479.25;4984912;28;20730;-78
2022/09/16 06:35:56;;;;;;;7.67;3.80;;;;;;;12.19;95.25;100472.50;4983198;28;20196;-76
2022/09/16 06:38:23;;;;;;;10.50;3.67;;;;;;;12.34;94.56;100477.72;4980784;28;20184;-78
2022/09/16 06:40:49;;;;;;;12.23;4.30;;;;;;;12.42;94.05;100476.06;4981675;28;20213;-78
2022/09/16 06:43:15;;;;;;;4.03;2.67;;;;;;;12.50;92.86;100472.69;4982476;28;20188;-76
2022/09/16 06:45:40;;;;;;;7.70;3.17;;;;;;;12.59;92.68;100470.16;4987082;28;20682;-79
2022/09/16 06:48:05;;;;;;;9.20;3.40;;;;;;;12.59;91.58;100466.75;4988261;28;20198;-78
2022/09/16 06:50:31;;;;;;;6.83;3.03;;;;;;;12.78;90.53;100466.00;5000666;28;20207;-78
2022/09/16 06:52:56;;;;;;;7.77;2.47;;;;;;;13.00;90.09;100448.97;4998440;28;20214;-77
2022/09/16 06:55:22;;;;;;;7.30;2.27;;;;;;;13.07;88.94;100458.44;4977586;28;20223;-72
2022/09/16 06:57:47;;;;;;;6.63;2.07;;;;;;;13.12;88.30;100456.72;4982322;28;20196;-72
2022/09/16 07:00:13;;;;;;;4.80;1.60;;;;;;;13.36;86.91;100456.78;4989570;28;20746;-73
2022/09/16 07:02:38;;;;;;;8.10;2.23;;;;;;;13.39;87.43;100454.22;4969784;28;20181;-72
2022/09/16 07:05:04;;;;;;;7.27;2.10;;;;;;;13.27;86.21;100461.91;4979207;28;20279;-78
2022/09/16 07:07:35;;;;;;;9.03;2.53;;;;;;;13.24;87.01;100457.63;4967999;28;20819;-79
2022/09/16 07:10:01;;;;;;;7.37;1.53;;;;;;;13.27;86.72;100457.63;4999542;28;20684;-80
2022/09/16 07:12:27;;;;;;;7.10;1.80;;;;;;;13.11;86.44;100455.84;4980811;28;20212;-79
2022/09/16 07:14:53;;;;;;;5.97;1.67;;;;;;;13.52;85.96;100451.66;5003551;28;20200;-80
2022/09/16 07:17:18;;;;;;;5.97;1.60;;;;;;;13.73;85.79;100450.81;4995887;28;20197;-80
2022/09/16 07:19:43;;;;;;;8.43;1.80;;;;;;;13.98;84.91;100452.50;5010120;28;20260;-80
2022/09/16 07:22:10;;;;;;;8.07;2.00;;;;;;;13.80;83.20;100444.78;5016299;28;20283;-80
2022/09/16 07:24:35;;;;;;;6.60;1.37;;;;;;;13.77;83.35;100455.13;4993799;28;20189;-80
2022/09/16 07:27:01;;;;;;;4.33;1.57;;;;;;;14.14;82.21;100434.47;5000358;28;20202;-80
2022/09/16 07:29:26;;;;;;;7.03;1.17;;;;;;;14.16;80.61;100445.63;5003977;28;20342;-81
2022/09/16 07:31:52;;;;;;;9.63;2.23;;;;;;;14.09;80.73;100435.34;5008188;28;20571;-80
2022/09/16 07:34:18;;;;;;;6.80;1.60;;;;;;;14.29;80.25;100442.22;5010019;28;20634;-81
2022/09/16 07:36:47;;;;;;;3.70;1.27;;;;;;;14.70;80.06;100444.66;5009925;28;20199;-81
2022/09/16 07:39:15;;;;;;;3.53;1.20;;;;;;;14.48;79.23;100449.03;5026043;28;20195;-81
2022/09/16 07:41:42;;;;;;;4.27;1.23;;;;;;;14.70;78.89;100440.38;4993479;28;20204;-78
2022/09/16 07:44:11;;;;;;;4.60;1.80;;;;;;;14.50;76.29;100447.31;4998507;28;20198;-80
2022/09/16 07:46:37;;;;;;;5.60;1.33;;;;;;;14.87;77.28;100448.03;5003882;28;20192;-81
2022/09/16 07:49:05;;;;;;;7.20;1.30;;;;;;;15.19;75.70;100451.31;4992471;28;20510;-81
2022/09/16 07:51:31;;;;;;;4.23;1.10;;;;;;;15.12;75.13;100449.63;5012050;28;20263;-79
2022/09/16 07:53:59;;;;;;;4.17;1.33;;;;;;;15.41;74.64;100440.88;5011267;28;20207;-79
2022/09/16 07:56:27;;;;;;;6.47;1.57;;;;;;;15.72;73.22;100439.81;5005630;28;20183;-79
2022/09/16 07:58:54;;;;;;;4.63;1.50;;;;;;;15.58;73.26;100440.75;5004334;28;20793;-80
2022/09/16 08:01:20;;;;;;;3.57;1.13;;;;;;;15.46;73.72;100433.09;5015737;28;20207;-80
2022/09/16 08:03:46;;;;;;;6.00;1.47;;;;;;;15.55;73.80;100439.06;5003771;28;20699;-80
2022/09/16 08:06:15;;;;;;;5.47;1.20;;;;;;;16.09;72.71;100436.03;4975391;28;20220;-79
2022/09/16 08:08:41;;;;;;;5.53;1.33;;;;;;;16.16;71.87;100434.25;5003991;28;20560;-80
2022/09/16 08:11:08;;;;;;;4.63;1.13;;;;;;;16.17;70.92;100438.53;5006021;28;20271;-80
2022/09/16 08:13:35;;;;;;;5.40;1.50;;;;;;;16.29;69.56;100439.25;5014508;28;20246;-80
2022/09/16 08:16:07;;;;;;;7.53;1.57;;;;;;;16.35;69.76;100435.75;5007933;28;20203;-80
2022/09/16 08:18:33;;;;;;;6.43;1.53;;;;;;;16.72;68.84;100442.28;5007193;28;20197;-81
2022/09/16 08:21:07;;;;;;;8.73;1.43;;;;;;;16.95;68.22;100440.25;5017551;28;20234;-80
2022/09/16 08:23:33;;;;;;;4.67;1.37;;;;;;;16.74;67.99;100448.25;5012340;28;20810;-80
2022/09/16 08:25:59;;;;;;;5.17;1.50;;;;;;;16.77;68.51;100456.00;4994249;28;20306;-81
2022/09/16 08:28:26;;;;;;;5.17;1.30;;;;;;;16.85;68.15;100444.69;4991591;28;20234;-73
2022/09/16 08:30:51;;;;;;;6.87;1.33;;;;;;;17.38;66.56;100434.47;4998223;28;20214;-78
2022/09/16 08:33:20;;;;;;;6.20;2.03;;;;;;;17.69;65.89;100420.19;4995380;28;20269;-77
2022/09/16 08:36:14;;;;;;;8.70;1.73;;;;;;;17.22;66.01;100434.72;4999487;28;20664;-76
2022/09/16 08:38:40;;;;;;;5.00;1.73;;;;;;;16.88;66.66;100439.47;4992324;28;20190;-77
2022/09/16 08:41:24;;;;;;;8.57;1.40;;;;;;;17.36;64.59;100433.63;4998145;28;20665;-77
2022/09/16 08:44:20;;;;;;;6.33;1.70;;;;;;;17.72;62.53;100443.44;4997807;28;20191;-77
2022/09/16 08:46:48;;;;;;;7.70;1.43;;;;;;;17.89;62.82;100438.84;4999931;28;20191;-81
2022/09/16 08:49:21;;;;;;;3.73;1.13;;;;;;;18.13;60.18;100433.25;4977733;28;20207;-77
2022/09/16 08:51:47;;;;;;;9.13;1.83;;;;;;;18.30;61.11;100438.13;5001807;28;20673;-78
2022/09/16 08:54:27;;;;;;;8.77;1.60;;;;;;;17.17;62.16;100447.69;4995003;28;20201;-77
2022/09/16 08:56:56;;;;;;;4.97;1.10;;;;;;;18.59;61.50;100441.03;5000538;28;20312;-77
2022/09/16 08:59:26;;;;;;;4.33;1.30;;;;;;;18.91;59.17;100442.13;4994937;28;20211;-78
2022/09/16 09:02:06;;;;;;;5.43;1.50;;;;;;;18.19;58.97;100438.31;4997502;28;20197;-78
2022/09/16 09:04:32;;;;;;;5.63;1.30;;;;;;;19.02;58.64;100434.94;4988245;28;20239;-78
2022/09/16 09:07:38;;;;;;;6.47;1.67;;;;;;;19.40;56.33;100424.59;4979193;28;20728;-78
2022/09/16 09:10:28;;;;;;;4.30;1.25;;;;;;;19.74;56.30;100430.72;4981002;28;20208;-79
2022/09/16 09:13:05;;;;;;;6.55;1.52;;;;;;;20.15;54.15;100432.28;4987961;28;20726;-77
2022/09/16 09:15:30;;;;;;;4.22;1.65;;;;;;;20.59;52.30;100427.59;4992635;28;20192;-77
2022/09/16 09:18:16;;;;;;;5.97;1.85;;;;;;;21.17;51.98;100416.38;4983031;28;20243;-78
2022/09/16 09:21:08;;;;;;;5.68;1.90;;;;;;;23.00;46.64;100407.41;4991798;28;20243;-78
2022/09/16 09:23:52;;;;;;;6.22;1.70;;;;;;;24.71;42.44;100400.22;5015491;28;20284;-78
2022/09/16 09:26:25;;;;;;;5.47;1.77;;;;;;;25.56;41.10;100394.44;4998094;28;20351;-77
2022/09/16 09:29:09;;;;;;;4.25;1.70;;;;;;;26.74;37.59;100393.53;4982099;28;20731;-77
2022/09/16 09:31:56;;;;;;;3.83;1.40;;;;;;;24.32;41.24;100403.72;4983396;28;20192;-76
2022/09/16 09:34:44;;;;;;;4.40;1.42;;;;;;;26.80;38.11;100395.81;4991213;28;20253;-76
2022/09/16 09:37:47;;;;;;;13.40;2.22;;;;;;;24.03;41.88;100404.16;4993895;28;20199;-76
2022/09/16 09:40:16;;;;;;;5.55;1.70;;;;;;;21.42;47.91;100410.34;4978168;28;20687;-78
2022/09/16 09:42:57;;;;;;;4.20;1.50;;;;;;;21.01;48.66;100409.94;4985733;28;20192;-78
2022/09/16 09:45:32;;;;;;;7.68;1.77;;;;;;;22.95;45.23;100398.03;4976138;28;20184;-77
2022/09/16 09:48:25;;;;;;;9.67;1.40;;;;;;;20.75;48.84;100397.66;4978835;28;20195;-77
2022/09/16 09:50:52;;;;;;;7.20;1.70;;;;;;;20.27;49.26;100395.56;4985250;28;20231;-77
2022/09/16 09:53:33;;;;;;;4.83;1.53;;;;;;;19.67;51.71;100402.31;4979980;28;20207;-77
2022/09/16 09:56:29;;;;;;;7.93;2.00;;;;;;;18.53;54.47;100408.31;4976968;28;20199;-77
2022/09/16 09:59:16;;;;;;;6.70;1.60;;;;;;;17.78;58.33;100417.44;4975670;28;20196;-77
2022/09/16 10:01:41;;;;;;;6.27;1.30;;;;;;;17.46;59.22;100414.50;4978622;28;20188;-77
2022/09/16 10:04:14;;;;;;;4.73;1.30;;;;;;;17.91;55.90;100399.97;4980118;28;20206;-77
2022/09/16 10:06:41;;;;;;;4.43;1.17;;;;;;;23.36;43.31;100377.28;4979461;28;20195;-77
2022/09/16 10:09:13;;;;;;;5.20;1.02;;;;;;;22.47;43.50;100384.22;4986017;28;20199;-77
2022/09/16 10:11:59;;;;;;;2.65;1.10;;;;;;;22.78;41.95;100376.97;4981863;28;20191;-77
2022/09/16 10:14:32;;;;;;;3.75;1.27;;;;;;;25.68;37.18;100376.31;4984073;28;20214;-77
2022/09/16 10:17:04;;;;;;;3.72;1.27;;;;;;;28.96;31.49;100367.13;4983462;28;20226;-77
2022/09/16 10:19:51;;;;;;;2.17;1.10;;;;;;;30.22;29.81;100357.84;4982401;28;20220;-75
2022/09/16 10:22:29;;;;;;;4.00;1.30;;;;;;;31.02;28.79;100358.25;4977572;28;20192;-76
2022/09/16 10:25:06;;;;;;;4.68;1.40;;;;;;;31.87;27.90;100345.72;4978040;28;20194;-77
2022/09/16 10:27:34;;;;;;;3.38;1.30;;;;;;;31.50;27.94;100353.84;4984969;28;20315;-76
2022/09/16 10:30:16;;;;;;;5.57;1.55;;;;;;;32.43;27.45;100351.94;4977363;28;20273;-75
2022/09/16 10:32:50;;;;;;;5.20;1.73;;;;;;;32.73;26.89;100344.22;4988870;28;20211;-75
2022/09/16 10:35:36;;;;;;;4.07;1.25;;;;;;;25.29;36.10;100372.19;4985651;28;20180;-75
2022/09/16 10:38:07;;;;;;;5.85;1.65;;;;;;;28.96;32.74;100356.59;4979914;28;20652;-77
2022/09/16 10:40:33;;;;;;;4.28;1.40;;;;;;;28.33;32.05;100349.19;4982789;28;20219;-76
2022/09/16 10:43:13;;;;;;;5.20;1.60;;;;;;;28.87;31.08;100353.69;4979579;28;20179;-75
2022/09/16 10:45:48;;;;;;;4.68;1.50;;;;;;;30.53;29.22;100340.69;4987601;28;20234;-75
2022/09/16 10:48:17;;;;;;;3.97;1.60;;;;;;;31.46;27.15;100347.09;4976123;28;20903;-75
2022/09/16 10:50:57;;;;;;;4.50;1.80;;;;;;;32.04;27.02;100334.63;4986741;28;20211;-75
2022/09/16 10:53:31;;;;;;;4.25;1.30;;;;;;;32.89;25.98;100332.28;4978121;28;20252;-75
2022/09/16 10:56:24;;;;;;;4.82;1.48;;;;;;;32.13;26.08;100328.63;4989344;28;20204;-75
2022/09/16 10:59:05;;;;;;;4.65;1.38;;;;;;;27.60;32.63;100351.84;4990732;28;20239;-74
2022/09/16 11:01:49;;;;;;;3.25;1.80;;;;;;;25.55;35.93;100361.28;4991858;28;20266;-76
2022/09/16 11:04:42;;;;;;;6.35;1.92;;;;;;;28.60;31.76;100336.97;5000958;28;20297;-76
2022/09/16 11:07:26;;;;;;;6.53;1.80;;;;;;;30.03;30.09;100326.50;4996930;28;20202;-74
2022/09/16 11:10:02;;;;;;;4.43;2.47;;;;;;;27.30;32.83;100338.66;4988885;28;20212;-74
2022/09/16 11:12:36;;;;;;;3.22;1.50;;;;;;;26.24;34.77;100334.09;4996987;28;20203;-74
2022/09/16 11:15:09;;;;;;;3.83;1.42;;;;;;;24.49;38.18;100338.38;4989839;28;20197;-76
2022/09/16 11:17:59;;;;;;;4.30;2.22;;;;;;;23.36;38.88;100345.91;4999549;28;20196;-76
2022/09/16 11:20:44;;;;;;;5.90;1.50;;;;;;;23.99;39.35;100339.78;4997915;28;20284;-77
2022/09/16 11:23:39;;;;;;;3.17;1.50;;;;;;;23.83;38.51;100343.91;4992612;28;20217;-76
2022/09/16 11:26:29;;;;;;;3.63;1.45;;;;;;;23.68;40.16;100355.88;4998088;28;20203;-76
2022/09/16 11:29:33;;;;;;;5.07;1.50;;;;;;;21.68;42.79;100365.19;4997647;28;20242;-75
2022/09/16 11:32:21;;;;;;;5.07;1.87;;;;;;;22.82;42.37;100361.09;4994548;28;20224;-76
2022/09/16 11:35:20;;;;;;;7.03;1.63;;;;;;;23.07;41.36;100348.78;5001615;28;20199;-75
2022/09/16 11:37:52;;;;;;;3.53;1.17;;;;;;;23.10;41.52;100343.44;4998337;28;20192;-76
2022/09/16 11:40:29;;;;;;;5.20;1.70;;;;;;;23.47;41.22;100341.06;4998219;28;20215;-76
2022/09/16 11:43:06;;;;;;;4.97;1.63;;;;;;;21.72;43.85;100348.56;5002262;28;20203;-76
2022/09/16 11:45:53;;;;;;;3.90;1.30;;;;;;;23.35;42.17;100338.13;4993078;28;20581;-76
2022/09/16 11:48:33;;;;;;;2.93;1.23;;;;;;;22.09;43.13;100344.66;5003707;28;20191;-76
2022/09/16 11:50:58;;;;;;;4.50;1.23;;;;;;;21.24;46.01;100339.75;5002202;28;20227;-75
2022/09/16 11:53:30;;;;;;;4.73;1.60;;;;;;;20.96;46.73;100336.31;4999274;28;20226;-75